sensor_id;sensor_type;location;lat;lon;timestamp;temperature;humidity
65573;SHT30;52214;50.940;13.996;2022-12-18T00:01:41;-10.13;99.99
65573;SHT30;52214;50.940;13.996;2022-12-18T00:04:20;-10.17;99.99
65573;SHT30;52214;50.940;13.996;2022-12-18T00:06:47;-10.24;99.99
65573;SHT30;52214;50.940;13.996;2022-12-18T00:09:12;-10.30;99.99
65573;SHT30;52214;50.940;13.996;2022-12-18T00:11:38;-10.30;99.99
65573;SHT30;52214;50.940;13.996;2022-12-18T00:14:04;-10.34;99.99
65573;SHT30;52214;50.940;13.996;2022-12-18T00:16:29;-10.25;99.99
65573;SHT30;52214;50.940;13.996;2022-12-18T00:18:58;-10.21;99.99
65573;SHT30;52214;50.940;13.996;2022-12-18T00:21:25;-10.25;99.99
65573;SHT30;52214;50.940;13.996;2022-12-18T00:23:51;-10.33;99.99
65573;SHT30;52214;50.940;13.996;2022-12-18T00:26:22;-10.28;99.99
65573;SHT30;52214;50.940;13.996;2022-12-18T00:28:48;-10.38;99.99
65573;SHT30;52214;50.940;13.996;2022-12-18T00:31:19;-10.49;99.99
65573;SHT30;52214;50.940;13.996;2022-12-18T00:33:45;-10.61;99.99
65573;SHT30;52214;50.940;13.996;2022-12-18T00:36:16;-10.65;99.99
65573;SHT30;52214;50.940;13.996;2022-12-18T00:38:43;-10.65;99.99
65573;SHT30;52214;50.940;13.996;2022-12-18T00:41:10;-10.73;99.99
65573;SHT30;52214;50.940;13.996;2022-12-18T00:43:37;-10.79;99.99
65573;SHT30;52214;50.940;13.996;2022-12-18T00:46:03;-10.79;99.99
65573;SHT30;52214;50.940;13.996;2022-12-18T00:48:29;-10.79;99.99
65573;SHT30;52214;50.940;13.996;2022-12-18T00:50:55;-10.79;99.99
65573;SHT30;52214;50.940;13.996;2022-12-18T00:53:21;-10.87;99.99
65573;SHT30;52214;50.940;13.996;2022-12-18T00:55:46;-10.89;99.99
65573;SHT30;52214;50.940;13.996;2022-12-18T00:58:14;-10.96;99.99
65573;SHT30;52214;50.940;13.996;2022-12-18T01:00:41;-10.91;99.99
65573;SHT30;52214;50.940;13.996;2022-12-18T01:03:06;-10.87;99.99
65573;SHT30;52214;50.940;13.996;2022-12-18T01:05:32;-10.96;99.99
65573;SHT30;52214;50.940;13.996;2022-12-18T01:07:58;-10.96;99.99
65573;SHT30;52214;50.940;13.996;2022-12-18T01:10:25;-10.90;99.99
65573;SHT30;52214;50.940;13.996;2022-12-18T01:12:50;-10.80;99.99
65573;SHT30;52214;50.940;13.996;2022-12-18T01:15:17;-10.33;99.99
65573;SHT30;52214;50.940;13.996;2022-12-18T01:17:43;-10.38;99.99
65573;SHT30;52214;50.940;13.996;2022-12-18T01:20:10;-10.33;99.99
65573;SHT30;52214;50.940;13.996;2022-12-18T01:22:36;-10.25;99.99
65573;SHT30;52214;50.940;13.996;2022-12-18T01:25:03;-10.18;99.99
65573;SHT30;52214;50.940;13.996;2022-12-18T01:27:29;-10.41;99.99
65573;SHT30;52214;50.940;13.996;2022-12-18T01:29:55;-10.59;99.99
65573;SHT30;52214;50.940;13.996;2022-12-18T01:32:20;-10.69;99.99
65573;SHT30;52214;50.940;13.996;2022-12-18T01:34:47;-10.82;99.99
65573;SHT30;52214;50.940;13.996;2022-12-18T01:37:13;-10.56;99.99
65573;SHT30;52214;50.940;13.996;2022-12-18T01:39:38;-10.69;99.99
65573;SHT30;52214;50.940;13.996;2022-12-18T01:42:22;-10.91;99.99
65573;SHT30;52214;50.940;13.996;2022-12-18T01:50:21;-11.10;99.99
65573;SHT30;52214;50.940;13.996;2022-12-18T01:53:18;-11.10;99.99
65573;SHT30;52214;50.940;13.996;2022-12-18T01:55:50;-11.24;99.99
65573;SHT30;52214;50.940;13.996;2022-12-18T01:58:18;-11.01;99.99
65573;SHT30;52214;50.940;13.996;2022-12-18T02:00:44;-11.07;99.99
65573;SHT30;52214;50.940;13.996;2022-12-18T02:03:09;-10.84;99.99
65573;SHT30;52214;50.940;13.996;2022-12-18T02:05:59;-10.76;99.99
65573;SHT30;52214;50.940;13.996;2022-12-18T02:22:26;-10.51;99.99
65573;SHT30;52214;50.940;13.996;2022-12-18T02:27:32;-10.86;99.99
65573;SHT30;52214;50.940;13.996;2022-12-18T02:30:00;-10.91;99.99
65573;SHT30;52214;50.940;13.996;2022-12-18T02:32:39;-10.76;99.99
65573;SHT30;52214;50.940;13.996;2022-12-18T02:35:09;-10.63;99.99
65573;SHT30;52214;50.940;13.996;2022-12-18T02:37:37;-10.41;99.99
65573;SHT30;52214;50.940;13.996;2022-12-18T02:40:05;-10.06;99.99
65573;SHT30;52214;50.940;13.996;2022-12-18T02:42:31;-10.18;99.99
65573;SHT30;52214;50.940;13.996;2022-12-18T02:44:57;-10.66;99.99
65573;SHT30;52214;50.940;13.996;2022-12-18T02:47:27;-10.80;99.99
65573;SHT30;52214;50.940;13.996;2022-12-18T02:50:13;-10.84;99.99
65573;SHT30;52214;50.940;13.996;2022-12-18T02:52:51;-10.87;99.99
65573;SHT30;52214;50.940;13.996;2022-12-18T03:01:04;-10.90;99.99
65573;SHT30;52214;50.940;13.996;2022-12-18T03:03:40;-11.00;99.99
65573;SHT30;52214;50.940;13.996;2022-12-18T03:06:28;-10.90;99.99
65573;SHT30;52214;50.940;13.996;2022-12-18T03:09:01;-10.59;99.99
65573;SHT30;52214;50.940;13.996;2022-12-18T03:11:30;-10.42;99.99
65573;SHT30;52214;50.940;13.996;2022-12-18T03:14:19;-10.44;99.99
65573;SHT30;52214;50.940;13.996;2022-12-18T03:16:47;-10.73;99.99
65573;SHT30;52214;50.940;13.996;2022-12-18T03:19:17;-10.84;99.99
65573;SHT30;52214;50.940;13.996;2022-12-18T03:21:49;-11.03;99.99
65573;SHT30;52214;50.940;13.996;2022-12-18T03:24:18;-11.07;99.99
65573;SHT30;52214;50.940;13.996;2022-12-18T03:26:47;-11.13;99.99
65573;SHT30;52214;50.940;13.996;2022-12-18T03:29:20;-11.18;99.99
65573;SHT30;52214;50.940;13.996;2022-12-18T03:31:51;-11.30;99.99
65573;SHT30;52214;50.940;13.996;2022-12-18T03:34:24;-11.41;99.99
65573;SHT30;52214;50.940;13.996;2022-12-18T03:36:52;-11.36;99.99
65573;SHT30;52214;50.940;13.996;2022-12-18T03:39:18;-11.36;99.99
65573;SHT30;52214;50.940;13.996;2022-12-18T03:42:15;-11.20;99.99
65573;SHT30;52214;50.940;13.996;2022-12-18T03:45:00;-11.13;99.99
65573;SHT30;52214;50.940;13.996;2022-12-18T03:47:38;-10.90;99.99
65573;SHT30;52214;50.940;13.996;2022-12-18T03:50:11;-10.90;99.99
65573;SHT30;52214;50.940;13.996;2022-12-18T03:55:07;-11.17;99.99
65573;SHT30;52214;50.940;13.996;2022-12-18T03:57:33;-11.24;99.99
65573;SHT30;52214;50.940;13.996;2022-12-18T04:00:28;-11.01;99.99
65573;SHT30;52214;50.940;13.996;2022-12-18T04:02:56;-11.16;99.99
65573;SHT30;52214;50.940;13.996;2022-12-18T04:05:24;-11.13;99.99
65573;SHT30;52214;50.940;13.996;2022-12-18T04:07:51;-10.89;99.99
65573;SHT30;52214;50.940;13.996;2022-12-18T04:10:19;-10.93;99.99
65573;SHT30;52214;50.940;13.996;2022-12-18T04:12:45;-10.97;99.99
65573;SHT30;52214;50.940;13.996;2022-12-18T04:15:12;-10.99;99.99
65573;SHT30;52214;50.940;13.996;2022-12-18T04:17:39;-11.08;99.99
65573;SHT30;52214;50.940;13.996;2022-12-18T04:20:08;-11.03;99.99
65573;SHT30;52214;50.940;13.996;2022-12-18T04:22:34;-10.93;99.99
65573;SHT30;52214;50.940;13.996;2022-12-18T04:25:00;-10.76;99.99
65573;SHT30;52214;50.940;13.996;2022-12-18T04:27:26;-10.59;99.99
65573;SHT30;52214;50.940;13.996;2022-12-18T04:29:51;-10.69;99.99
65573;SHT30;52214;50.940;13.996;2022-12-18T04:32:17;-10.76;99.99
65573;SHT30;52214;50.940;13.996;2022-12-18T04:34:42;-10.59;99.99
65573;SHT30;52214;50.940;13.996;2022-12-18T04:37:08;-10.80;99.99
65573;SHT30;52214;50.940;13.996;2022-12-18T04:39:33;-10.89;99.99
65573;SHT30;52214;50.940;13.996;2022-12-18T04:41:59;-10.83;99.99
65573;SHT30;52214;50.940;13.996;2022-12-18T04:44:24;-10.42;99.99
65573;SHT30;52214;50.940;13.996;2022-12-18T04:46:50;-10.71;99.99
65573;SHT30;52214;50.940;13.996;2022-12-18T04:49:15;-10.83;99.99
65573;SHT30;52214;50.940;13.996;2022-12-18T04:51:41;-10.90;99.99
65573;SHT30;52214;50.940;13.996;2022-12-18T04:54:06;-10.95;99.99
65573;SHT30;52214;50.940;13.996;2022-12-18T04:56:32;-10.90;99.99
65573;SHT30;52214;50.940;13.996;2022-12-18T04:58:57;-10.99;99.99
65573;SHT30;52214;50.940;13.996;2022-12-18T05:01:23;-10.96;99.99
65573;SHT30;52214;50.940;13.996;2022-12-18T05:03:48;-10.63;99.99
65573;SHT30;52214;50.940;13.996;2022-12-18T05:06:15;-10.89;99.99
65573;SHT30;52214;50.940;13.996;2022-12-18T05:08:41;-10.86;99.99
65573;SHT30;52214;50.940;13.996;2022-12-18T05:11:09;-10.82;99.99
65573;SHT30;52214;50.940;13.996;2022-12-18T05:13:36;-10.95;99.99
65573;SHT30;52214;50.940;13.996;2022-12-18T05:16:02;-10.84;99.99
65573;SHT30;52214;50.940;13.996;2022-12-18T05:18:28;-10.79;99.99
65573;SHT30;52214;50.940;13.996;2022-12-18T05:20:54;-10.79;99.99
65573;SHT30;52214;50.940;13.996;2022-12-18T05:23:20;-10.77;99.99
65573;SHT30;52214;50.940;13.996;2022-12-18T05:28:24;-10.73;99.99
65573;SHT30;52214;50.940;13.996;2022-12-18T05:30:52;-10.69;99.99
65573;SHT30;52214;50.940;13.996;2022-12-18T05:33:19;-10.53;99.99
65573;SHT30;52214;50.940;13.996;2022-12-18T05:35:52;-10.56;99.99
65573;SHT30;52214;50.940;13.996;2022-12-18T05:38:20;-10.46;99.99
65573;SHT30;52214;50.940;13.996;2022-12-18T05:40:47;-10.34;99.99
65573;SHT30;52214;50.940;13.996;2022-12-18T05:43:12;-10.27;99.99
65573;SHT30;52214;50.940;13.996;2022-12-18T05:45:38;-10.16;99.99
65573;SHT30;52214;50.940;13.996;2022-12-18T05:48:04;-10.17;99.99
65573;SHT30;52214;50.940;13.996;2022-12-18T05:50:30;-10.38;99.99
65573;SHT30;52214;50.940;13.996;2022-12-18T05:55:28;-10.24;99.99
65573;SHT30;52214;50.940;13.996;2022-12-18T05:57:53;-10.00;99.99
65573;SHT30;52214;50.940;13.996;2022-12-18T06:00:19;-9.90;99.99
65573;SHT30;52214;50.940;13.996;2022-12-18T06:02:47;-9.96;99.99
65573;SHT30;52214;50.940;13.996;2022-12-18T06:05:13;-9.92;99.99
65573;SHT30;52214;50.940;13.996;2022-12-18T06:07:38;-9.82;99.99
65573;SHT30;52214;50.940;13.996;2022-12-18T06:10:04;-9.90;99.99
65573;SHT30;52214;50.940;13.996;2022-12-18T06:12:30;-9.83;99.99
65573;SHT30;52214;50.940;13.996;2022-12-18T06:14:55;-9.80;99.99
65573;SHT30;52214;50.940;13.996;2022-12-18T06:17:21;-9.82;99.99
65573;SHT30;52214;50.940;13.996;2022-12-18T06:21:54;-9.73;99.99
65573;SHT30;52214;50.940;13.996;2022-12-18T06:24:19;-9.63;99.99
65573;SHT30;52214;50.940;13.996;2022-12-18T06:26:45;-9.83;99.99
65573;SHT30;52214;50.940;13.996;2022-12-18T06:29:10;-9.97;99.99
65573;SHT30;52214;50.940;13.996;2022-12-18T06:31:36;-10.10;99.99
65573;SHT30;52214;50.940;13.996;2022-12-18T06:34:03;-10.25;99.99
65573;SHT30;52214;50.940;13.996;2022-12-18T06:36:29;-10.17;99.99
65573;SHT30;52214;50.940;13.996;2022-12-18T06:38:54;-10.25;99.99
65573;SHT30;52214;50.940;13.996;2022-12-18T06:41:21;-10.03;99.99
65573;SHT30;52214;50.940;13.996;2022-12-18T06:47:05;-10.18;99.99
65573;SHT30;52214;50.940;13.996;2022-12-18T06:49:30;-10.21;99.99
65573;SHT30;52214;50.940;13.996;2022-12-18T06:51:56;-10.27;99.99
65573;SHT30;52214;50.940;13.996;2022-12-18T06:54:21;-10.24;99.99
65573;SHT30;52214;50.940;13.996;2022-12-18T06:56:47;-10.35;99.99
65573;SHT30;52214;50.940;13.996;2022-12-18T06:59:13;-10.10;99.99
65573;SHT30;52214;50.940;13.996;2022-12-18T07:01:38;-9.73;99.99
65573;SHT30;52214;50.940;13.996;2022-12-18T07:04:04;-9.83;99.99
65573;SHT30;52214;50.940;13.996;2022-12-18T07:06:30;-9.69;99.99
65573;SHT30;52214;50.940;13.996;2022-12-18T07:08:55;-9.75;99.99
65573;SHT30;52214;50.940;13.996;2022-12-18T07:13:53;-9.61;99.99
65573;SHT30;52214;50.940;13.996;2022-12-18T07:16:20;-9.61;99.99
65573;SHT30;52214;50.940;13.996;2022-12-18T07:18:46;-9.58;99.99
65573;SHT30;52214;50.940;13.996;2022-12-18T07:21:15;-9.48;99.99
65573;SHT30;52214;50.940;13.996;2022-12-18T07:23:41;-9.38;99.99
65573;SHT30;52214;50.940;13.996;2022-12-18T07:26:08;-9.45;99.99
65573;SHT30;52214;50.940;13.996;2022-12-18T07:28:36;-9.47;99.99
65573;SHT30;52214;50.940;13.996;2022-12-18T07:31:03;-9.23;99.99
65573;SHT30;52214;50.940;13.996;2022-12-18T07:33:29;-9.05;99.99
65573;SHT30;52214;50.940;13.996;2022-12-18T07:35:54;-9.00;99.99
65573;SHT30;52214;50.940;13.996;2022-12-18T07:40:19;-8.73;99.99
65573;SHT30;52214;50.940;13.996;2022-12-18T07:42:44;-8.57;99.99
65573;SHT30;52214;50.940;13.996;2022-12-18T07:45:10;-8.51;99.99
65573;SHT30;52214;50.940;13.996;2022-12-18T07:47:36;-8.34;99.99
65573;SHT30;52214;50.940;13.996;2022-12-18T07:50:03;-8.44;99.99
65573;SHT30;52214;50.940;13.996;2022-12-18T07:52:28;-8.51;99.99
65573;SHT30;52214;50.940;13.996;2022-12-18T07:54:54;-8.37;99.99
65573;SHT30;52214;50.940;13.996;2022-12-18T07:57:19;-8.38;99.99
65573;SHT30;52214;50.940;13.996;2022-12-18T07:59:45;-8.26;99.99
65573;SHT30;52214;50.940;13.996;2022-12-18T08:02:10;-8.17;99.99
65573;SHT30;52214;50.940;13.996;2022-12-18T08:07:08;-7.78;99.99
65573;SHT30;52214;50.940;13.996;2022-12-18T08:09:33;-7.61;99.99
65573;SHT30;52214;50.940;13.996;2022-12-18T08:11:59;-7.52;99.99
65573;SHT30;52214;50.940;13.996;2022-12-18T08:14:24;-7.55;99.99
65573;SHT30;52214;50.940;13.996;2022-12-18T08:16:50;-7.34;99.99
65573;SHT30;52214;50.940;13.996;2022-12-18T08:19:15;-7.20;99.99
65573;SHT30;52214;50.940;13.996;2022-12-18T08:21:41;-6.82;99.99
65573;SHT30;52214;50.940;13.996;2022-12-18T08:24:08;-6.74;99.99
65573;SHT30;52214;50.940;13.996;2022-12-18T08:26:34;-6.64;99.99
65573;SHT30;52214;50.940;13.996;2022-12-18T08:29:00;-6.53;99.99
65573;SHT30;52214;50.940;13.996;2022-12-18T08:33:50;-6.22;99.99
65573;SHT30;52214;50.940;13.996;2022-12-18T08:36:16;-6.13;99.99
65573;SHT30;52214;50.940;13.996;2022-12-18T08:38:42;-6.19;99.99
65573;SHT30;52214;50.940;13.996;2022-12-18T08:41:10;-6.23;99.99
65573;SHT30;52214;50.940;13.996;2022-12-18T08:43:36;-6.36;99.99
65573;SHT30;52214;50.940;13.996;2022-12-18T08:46:22;-6.16;99.99
65573;SHT30;52214;50.940;13.996;2022-12-18T08:48:50;-6.28;99.99
65573;SHT30;52214;50.940;13.996;2022-12-18T08:51:17;-6.03;99.99
65573;SHT30;52214;50.940;13.996;2022-12-18T08:53:43;-5.90;99.91
65573;SHT30;52214;50.940;13.996;2022-12-18T08:56:10;-5.84;99.94
65573;SHT30;52214;50.940;13.996;2022-12-18T09:00:29;-5.56;99.67
65573;SHT30;52214;50.940;13.996;2022-12-18T09:02:55;-5.43;99.16
65573;SHT30;52214;50.940;13.996;2022-12-18T09:05:21;-5.33;99.05
65573;SHT30;52214;50.940;13.996;2022-12-18T09:07:46;-5.22;99.01
65573;SHT30;52214;50.940;13.996;2022-12-18T09:10:12;-5.08;98.69
65573;SHT30;52214;50.940;13.996;2022-12-18T09:12:37;-5.07;98.45
65573;SHT30;52214;50.940;13.996;2022-12-18T09:15:03;-4.91;98.30
65573;SHT30;52214;50.940;13.996;2022-12-18T09:17:29;-4.81;98.17
65573;SHT30;52214;50.940;13.996;2022-12-18T09:19:54;-4.79;97.57
65573;SHT30;52214;50.940;13.996;2022-12-18T09:22:20;-4.71;97.38
65573;SHT30;52214;50.940;13.996;2022-12-18T09:27:54;-4.63;97.37
65573;SHT30;52214;50.940;13.996;2022-12-18T09:30:20;-4.52;97.12
65573;SHT30;52214;50.940;13.996;2022-12-18T09:32:45;-4.45;97.07
65573;SHT30;52214;50.940;13.996;2022-12-18T09:35:11;-4.41;96.57
65573;SHT30;52214;50.940;13.996;2022-12-18T09:37:36;-4.33;96.84
65573;SHT30;52214;50.940;13.996;2022-12-18T09:40:02;-4.28;96.58
65573;SHT30;52214;50.940;13.996;2022-12-18T09:42:28;-4.29;95.73
65573;SHT30;52214;50.940;13.996;2022-12-18T09:44:54;-4.36;96.23
65573;SHT30;52214;50.940;13.996;2022-12-18T09:47:28;-4.25;96.36
65573;SHT30;52214;50.940;13.996;2022-12-18T09:52:41;-4.16;95.71
65573;SHT30;52214;50.940;13.996;2022-12-18T09:57:50;-4.04;95.14
65573;SHT30;52214;50.940;13.996;2022-12-18T10:00:20;-4.02;95.08
65573;SHT30;52214;50.940;13.996;2022-12-18T10:02:46;-4.04;94.97
65573;SHT30;52214;50.940;13.996;2022-12-18T10:05:24;-3.93;95.95
65573;SHT30;52214;50.940;13.996;2022-12-18T10:08:05;-3.86;93.99
65573;SHT30;52214;50.940;13.996;2022-12-18T10:10:49;-3.80;94.85
65573;SHT30;52214;50.940;13.996;2022-12-18T10:17:00;-3.81;94.16
65573;SHT30;52214;50.940;13.996;2022-12-18T10:19:45;-3.80;94.29
65573;SHT30;52214;50.940;13.996;2022-12-18T10:27:41;-3.51;93.35
65573;SHT30;52214;50.940;13.996;2022-12-18T10:30:19;-3.41;92.97
65573;SHT30;52214;50.940;13.996;2022-12-18T10:32:44;-3.36;92.40
65573;SHT30;52214;50.940;13.996;2022-12-18T10:35:24;-3.39;91.74
65573;SHT30;52214;50.940;13.996;2022-12-18T10:46:36;-2.21;91.32
65573;SHT30;52214;50.940;13.996;2022-12-18T10:49:02;-1.73;87.32
65573;SHT30;52214;50.940;13.996;2022-12-18T10:51:36;-1.47;85.27
65573;SHT30;52214;50.940;13.996;2022-12-18T10:54:17;-1.08;84.47
65573;SHT30;52214;50.940;13.996;2022-12-18T10:56:45;-0.83;82.07
65573;SHT30;52214;50.940;13.996;2022-12-18T10:59:13;-1.01;81.64
65573;SHT30;52214;50.940;13.996;2022-12-18T11:01:57;-0.03;79.20
65573;SHT30;52214;50.940;13.996;2022-12-18T11:07:08;-1.42;81.31
65573;SHT30;52214;50.940;13.996;2022-12-18T11:09:37;-1.38;82.16
65573;SHT30;52214;50.940;13.996;2022-12-18T11:14:44;-1.73;83.40
65573;SHT30;52214;50.940;13.996;2022-12-18T11:19:58;-1.40;82.59
65573;SHT30;52214;50.940;13.996;2022-12-18T11:22:26;-1.27;82.40
65573;SHT30;52214;50.940;13.996;2022-12-18T11:27:37;-0.39;78.76
65573;SHT30;52214;50.940;13.996;2022-12-18T11:34:30;0.18;76.83
65573;SHT30;52214;50.940;13.996;2022-12-18T11:36:58;0.73;75.38
65573;SHT30;52214;50.940;13.996;2022-12-18T11:39:35;0.69;73.89
65573;SHT30;52214;50.940;13.996;2022-12-18T11:42:21;0.56;74.05
65573;SHT30;52214;50.940;13.996;2022-12-18T11:44:55;-0.59;76.29
65573;SHT30;52214;50.940;13.996;2022-12-18T11:50:15;-0.02;76.93
65573;SHT30;52214;50.940;13.996;2022-12-18T11:52:44;-0.09;75.32
65573;SHT30;52214;50.940;13.996;2022-12-18T11:55:11;0.10;76.24
65573;SHT30;52214;50.940;13.996;2022-12-18T12:01:36;1.84;71.35
65573;SHT30;52214;50.940;13.996;2022-12-18T12:04:06;2.55;68.76
65573;SHT30;52214;50.940;13.996;2022-12-18T12:06:56;1.67;68.48
65573;SHT30;52214;50.940;13.996;2022-12-18T12:15:23;1.86;69.28
65573;SHT30;52214;50.940;13.996;2022-12-18T12:24:10;1.63;67.95
65573;SHT30;52214;50.940;13.996;2022-12-18T12:39:46;3.21;65.65
65573;SHT30;52214;50.940;13.996;2022-12-18T12:42:35;2.76;65.55
65573;SHT30;52214;50.940;13.996;2022-12-18T12:47:59;3.98;64.40
65573;SHT30;52214;50.940;13.996;2022-12-18T12:50:27;2.70;65.92
65573;SHT30;52214;50.940;13.996;2022-12-18T12:52:55;2.36;66.65
65573;SHT30;52214;50.940;13.996;2022-12-18T12:55:25;1.56;68.32
65573;SHT30;52214;50.940;13.996;2022-12-18T13:00:27;0.93;72.00
65573;SHT30;52214;50.940;13.996;2022-12-18T13:03:01;0.79;71.13
65573;SHT30;52214;50.940;13.996;2022-12-18T13:05:50;0.32;72.89
65573;SHT30;52214;50.940;13.996;2022-12-18T13:08:28;0.01;73.68
65573;SHT30;52214;50.940;13.996;2022-12-18T13:10:55;-0.09;75.07
65573;SHT30;52214;50.940;13.996;2022-12-18T13:13:55;-0.49;75.97
65573;SHT30;52214;50.940;13.996;2022-12-18T13:16:23;-0.65;75.98
65573;SHT30;52214;50.940;13.996;2022-12-18T13:18:57;-0.47;76.08
65573;SHT30;52214;50.940;13.996;2022-12-18T13:21:33;-0.35;75.17
65573;SHT30;52214;50.940;13.996;2022-12-18T13:24:35;-0.68;75.85
65573;SHT30;52214;50.940;13.996;2022-12-18T13:28:23;-0.87;75.97
65573;SHT30;52214;50.940;13.996;2022-12-18T13:35:52;-2.21;81.55
65573;SHT30;52214;50.940;13.996;2022-12-18T13:38:24;-2.14;80.70
65573;SHT30;52214;50.940;13.996;2022-12-18T13:41:02;-1.98;81.05
65573;SHT30;52214;50.940;13.996;2022-12-18T13:43:32;-2.25;81.94
65573;SHT30;52214;50.940;13.996;2022-12-18T13:48:29;-2.88;83.28
65573;SHT30;52214;50.940;13.996;2022-12-18T13:51:05;-2.81;83.76
65573;SHT30;52214;50.940;13.996;2022-12-18T13:56:21;-2.46;83.06
65573;SHT30;52214;50.940;13.996;2022-12-18T13:59:14;-2.37;83.00
65573;SHT30;52214;50.940;13.996;2022-12-18T14:01:50;-2.31;82.83
65573;SHT30;52214;50.940;13.996;2022-12-18T14:04:35;-2.28;82.76
65573;SHT30;52214;50.940;13.996;2022-12-18T14:07:04;-2.87;84.23
65573;SHT30;52214;50.940;13.996;2022-12-18T14:09:35;-3.04;84.76
65573;SHT30;52214;50.940;13.996;2022-12-18T14:12:02;-3.34;85.67
65573;SHT30;52214;50.940;13.996;2022-12-18T14:14:48;-3.58;86.59
65573;SHT30;52214;50.940;13.996;2022-12-18T14:17:16;-3.79;87.54
65573;SHT30;52214;50.940;13.996;2022-12-18T14:19:44;-3.93;88.49
65573;SHT30;52214;50.940;13.996;2022-12-18T14:22:18;-4.07;88.99
65573;SHT30;52214;50.940;13.996;2022-12-18T14:24:46;-4.25;89.44
65573;SHT30;52214;50.940;13.996;2022-12-18T14:27:23;-4.32;90.11
65573;SHT30;52214;50.940;13.996;2022-12-18T14:29:49;-4.48;90.66
65573;SHT30;52214;50.940;13.996;2022-12-18T14:32:17;-4.50;90.97
65573;SHT30;52214;50.940;13.996;2022-12-18T14:34:50;-4.63;91.51
65573;SHT30;52214;50.940;13.996;2022-12-18T14:37:24;-4.90;92.32
65573;SHT30;52214;50.940;13.996;2022-12-18T14:39:54;-5.07;92.85
65573;SHT30;52214;50.940;13.996;2022-12-18T14:42:20;-5.04;93.16
65573;SHT30;52214;50.940;13.996;2022-12-18T14:44:46;-5.13;93.31
65573;SHT30;52214;50.940;13.996;2022-12-18T14:47:24;-5.16;93.78
65573;SHT30;52214;50.940;13.996;2022-12-18T14:49:50;-5.22;94.14
65573;SHT30;52214;50.940;13.996;2022-12-18T14:52:29;-5.23;94.31
65573;SHT30;52214;50.940;13.996;2022-12-18T14:54:56;-5.32;94.55
65573;SHT30;52214;50.940;13.996;2022-12-18T14:57:25;-5.28;94.70
65573;SHT30;52214;50.940;13.996;2022-12-18T14:59:52;-5.29;94.80
65573;SHT30;52214;50.940;13.996;2022-12-18T15:02:22;-5.26;94.95
65573;SHT30;52214;50.940;13.996;2022-12-18T15:05:00;-5.30;95.15
65573;SHT30;52214;50.940;13.996;2022-12-18T15:07:26;-5.37;95.28
65573;SHT30;52214;50.940;13.996;2022-12-18T15:10:28;-5.37;95.37
65573;SHT30;52214;50.940;13.996;2022-12-18T15:18:03;-5.46;95.95
65573;SHT30;52214;50.940;13.996;2022-12-18T15:20:54;-5.53;95.96
65573;SHT30;52214;50.940;13.996;2022-12-18T15:23:28;-5.66;96.22
65573;SHT30;52214;50.940;13.996;2022-12-18T15:26:03;-5.74;96.48
65573;SHT30;52214;50.940;13.996;2022-12-18T15:28:55;-5.69;96.49
65573;SHT30;52214;50.940;13.996;2022-12-18T15:31:34;-5.63;96.45
65573;SHT30;52214;50.940;13.996;2022-12-18T15:34:19;-5.64;96.53
65573;SHT30;52214;50.940;13.996;2022-12-18T15:36:46;-5.67;96.60
65573;SHT30;52214;50.940;13.996;2022-12-18T15:39:12;-5.70;96.63
65573;SHT30;52214;50.940;13.996;2022-12-18T15:41:39;-5.67;96.70
65573;SHT30;52214;50.940;13.996;2022-12-18T15:44:24;-5.69;96.76
65573;SHT30;52214;50.940;13.996;2022-12-18T15:46:50;-5.66;96.70
65573;SHT30;52214;50.940;13.996;2022-12-18T15:49:16;-5.67;96.78
65573;SHT30;52214;50.940;13.996;2022-12-18T15:51:42;-5.67;96.72
65573;SHT30;52214;50.940;13.996;2022-12-18T15:54:11;-5.67;96.47
65573;SHT30;52214;50.940;13.996;2022-12-18T15:56:39;-5.67;96.54
65573;SHT30;52214;50.940;13.996;2022-12-18T15:59:23;-5.70;96.47
65573;SHT30;52214;50.940;13.996;2022-12-18T16:01:51;-5.66;96.50
65573;SHT30;52214;50.940;13.996;2022-12-18T16:04:19;-5.81;96.65
65573;SHT30;52214;50.940;13.996;2022-12-18T16:06:46;-5.87;96.97
65573;SHT30;52214;50.940;13.996;2022-12-18T16:09:11;-5.94;97.00
65573;SHT30;52214;50.940;13.996;2022-12-18T16:11:39;-6.03;97.26
65573;SHT30;52214;50.940;13.996;2022-12-18T16:14:20;-5.94;97.21
65573;SHT30;52214;50.940;13.996;2022-12-18T16:16:48;-5.81;96.92
65573;SHT30;52214;50.940;13.996;2022-12-18T16:19:14;-5.75;96.69
65573;SHT30;52214;50.940;13.996;2022-12-18T16:21:40;-5.70;96.53
65573;SHT30;52214;50.940;13.996;2022-12-18T16:24:15;-5.81;96.41
65573;SHT30;52214;50.940;13.996;2022-12-18T16:26:41;-5.78;96.73
65573;SHT30;52214;50.940;13.996;2022-12-18T16:29:07;-5.73;96.48
65573;SHT30;52214;50.940;13.996;2022-12-18T16:31:33;-5.74;96.62
65573;SHT30;52214;50.940;13.996;2022-12-18T16:36:49;-5.80;96.85
65573;SHT30;52214;50.940;13.996;2022-12-18T16:39:16;-5.74;96.67
65573;SHT30;52214;50.940;13.996;2022-12-18T16:41:42;-5.81;96.77
65573;SHT30;52214;50.940;13.996;2022-12-18T16:44:07;-5.74;96.80
65573;SHT30;52214;50.940;13.996;2022-12-18T16:46:33;-5.60;96.65
65573;SHT30;52214;50.940;13.996;2022-12-18T16:48:59;-5.57;96.56
65573;SHT30;52214;50.940;13.996;2022-12-18T16:51:26;-5.56;96.48
65573;SHT30;52214;50.940;13.996;2022-12-18T16:53:53;-5.54;96.62
65573;SHT30;52214;50.940;13.996;2022-12-18T16:56:19;-5.49;96.74
65573;SHT30;52214;50.940;13.996;2022-12-18T16:58:50;-5.47;96.55
65573;SHT30;52214;50.940;13.996;2022-12-18T17:01:16;-5.46;96.70
65573;SHT30;52214;50.940;13.996;2022-12-18T17:03:41;-5.43;96.86
65573;SHT30;52214;50.940;13.996;2022-12-18T17:06:07;-5.43;96.82
65573;SHT30;52214;50.940;13.996;2022-12-18T17:08:33;-5.43;96.60
65573;SHT30;52214;50.940;13.996;2022-12-18T17:11:06;-5.33;96.36
65573;SHT30;52214;50.940;13.996;2022-12-18T17:13:32;-5.35;96.57
65573;SHT30;52214;50.940;13.996;2022-12-18T17:16:06;-5.37;96.48
65573;SHT30;52214;50.940;13.996;2022-12-18T17:18:32;-5.40;96.42
65573;SHT30;52214;50.940;13.996;2022-12-18T17:21:01;-5.37;96.38
65573;SHT30;52214;50.940;13.996;2022-12-18T17:23:27;-5.36;96.29
65573;SHT30;52214;50.940;13.996;2022-12-18T17:25:56;-5.43;96.38
65573;SHT30;52214;50.940;13.996;2022-12-18T17:28:24;-5.49;96.44
65573;SHT30;52214;50.940;13.996;2022-12-18T17:30:53;-5.37;96.34
65573;SHT30;52214;50.940;13.996;2022-12-18T17:33:19;-5.44;96.23
65573;SHT30;52214;50.940;13.996;2022-12-18T17:35:45;-5.44;96.14
65573;SHT30;52214;50.940;13.996;2022-12-18T17:38:11;-5.46;96.24
65573;SHT30;52214;50.940;13.996;2022-12-18T17:40:37;-5.44;96.25
65573;SHT30;52214;50.940;13.996;2022-12-18T17:43:08;-5.40;96.05
65573;SHT30;52214;50.940;13.996;2022-12-18T17:45:38;-5.39;95.96
65573;SHT30;52214;50.940;13.996;2022-12-18T17:48:04;-5.49;96.04
65573;SHT30;52214;50.940;13.996;2022-12-18T17:50:34;-5.44;95.95
65573;SHT30;52214;50.940;13.996;2022-12-18T17:53:01;-5.46;95.95
65573;SHT30;52214;50.940;13.996;2022-12-18T17:55:27;-5.42;95.75
65573;SHT30;52214;50.940;13.996;2022-12-18T17:57:53;-5.47;95.97